createdAt,value
2018-09-20T00:00:27.412Z,3.83
2018-09-20T00:02:55.194Z,3.80
2018-09-20T00:05:22.883Z,3.73
2018-09-20T00:07:50.447Z,4.43
2018-09-20T00:10:18.120Z,4.27
2018-09-20T00:12:45.788Z,3.53
2018-09-20T00:15:13.576Z,3.47
2018-09-20T00:17:41.120Z,4.97
2018-09-20T00:20:08.817Z,6.20
2018-09-20T00:22:36.491Z,5.60
2018-09-20T00:25:04.463Z,4.17
2018-09-20T00:27:32.024Z,3.27
2018-09-20T00:29:59.588Z,3.37
2018-09-20T00:32:27.237Z,3.80
2018-09-20T00:34:54.884Z,5.10
2018-09-20T00:37:22.675Z,4.40
2018-09-20T00:39:50.331Z,3.60
2018-09-20T00:42:17.988Z,3.50
2018-09-20T00:44:45.633Z,4.20
2018-09-20T00:47:13.291Z,3.10
2018-09-20T00:49:40.899Z,4.17
2018-09-20T00:52:08.537Z,3.70
2018-09-20T00:54:36.188Z,4.03
2018-09-20T00:57:04.112Z,3.70
2018-09-20T00:59:31.736Z,4.00
2018-09-20T01:01:59.568Z,4.73
2018-09-20T01:04:27.196Z,4.03
2018-09-20T01:06:54.901Z,4.00
2018-09-20T01:09:22.538Z,3.50
2018-09-20T01:11:50.084Z,4.90
2018-09-20T01:14:17.715Z,3.97
2018-09-20T01:16:45.369Z,3.77
2018-09-20T01:19:13.068Z,3.70
2018-09-20T01:22:43.610Z,4.67
2018-09-20T01:25:11.276Z,3.93
2018-09-20T01:27:38.886Z,4.07
2018-09-20T01:30:06.553Z,4.20
2018-09-20T01:32:34.143Z,3.83
2018-09-20T01:35:01.682Z,3.67
2018-09-20T01:37:29.239Z,4.27
2018-09-20T01:39:56.784Z,3.83
2018-09-20T01:42:24.419Z,3.97
2018-09-20T01:44:52.092Z,3.93
2018-09-20T01:47:19.768Z,5.13
2018-09-20T01:49:47.306Z,5.47
2018-09-20T01:52:14.952Z,4.03
2018-09-20T01:54:42.702Z,4.13
2018-09-20T01:57:10.323Z,3.50
2018-09-20T01:59:37.839Z,3.47
2018-09-20T02:02:05.433Z,3.70
2018-09-20T02:04:33.059Z,3.47
2018-09-20T02:07:00.651Z,3.97
2018-09-20T02:09:28.330Z,4.00
2018-09-20T02:11:55.893Z,3.80
2018-09-20T02:14:23.503Z,4.13
2018-09-20T02:16:51.154Z,3.83
2018-09-20T02:19:19.680Z,4.10
2018-09-20T02:21:47.216Z,3.50
2018-09-20T02:24:14.846Z,3.97
2018-09-20T02:26:42.484Z,3.80
2018-09-20T02:29:10.034Z,3.87
2018-09-20T02:31:37.695Z,3.80
2018-09-20T02:34:05.407Z,4.97
2018-09-20T02:36:33.918Z,4.13
2018-09-20T02:39:01.533Z,3.33
2018-09-20T02:41:29.196Z,4.23
2018-09-20T02:43:56.846Z,4.00
2018-09-20T02:46:24.396Z,4.83
2018-09-20T02:48:51.936Z,4.20
2018-09-20T02:51:19.482Z,3.70
2018-09-20T02:53:47.015Z,4.40
2018-09-20T02:56:14.662Z,4.93
2018-09-20T02:58:42.192Z,4.20
2018-09-20T03:01:09.903Z,4.73
2018-09-20T03:03:37.574Z,3.93
2018-09-20T03:06:05.284Z,3.87
2018-09-20T03:08:32.807Z,3.80
2018-09-20T03:11:00.435Z,4.33
2018-09-20T03:13:27.987Z,3.63
2018-09-20T03:15:55.675Z,4.00
2018-09-20T03:18:23.315Z,3.73
2018-09-20T03:20:50.955Z,5.03
2018-09-20T03:23:18.560Z,4.13
2018-09-20T03:25:46.208Z,4.30
2018-09-20T03:28:13.970Z,4.57
2018-09-20T03:30:41.627Z,3.77
2018-09-20T03:33:09.286Z,4.50
2018-09-20T03:35:36.924Z,4.27
2018-09-20T03:38:04.470Z,3.97
2018-09-20T03:40:31.989Z,4.00
2018-09-20T03:42:59.875Z,5.97
2018-09-20T03:45:27.542Z,4.50
2018-09-20T03:47:55.066Z,4.63
2018-09-20T03:50:22.626Z,3.73
2018-09-20T03:52:50.285Z,4.80
2018-09-20T03:55:17.948Z,4.10
2018-09-20T03:57:45.570Z,4.10
2018-09-20T04:00:13.099Z,3.90
2018-09-20T04:02:40.681Z,5.90
2018-09-20T04:05:08.543Z,4.77
2018-09-20T04:07:36.119Z,3.77
2018-09-20T04:10:03.791Z,4.57
2018-09-20T04:12:31.411Z,5.47
2018-09-20T04:14:58.918Z,4.30
2018-09-20T04:17:26.550Z,4.43
2018-09-20T04:19:54.413Z,4.83
2018-09-20T04:22:22.031Z,5.70
2018-09-20T04:24:49.546Z,5.77
2018-09-20T04:27:17.052Z,4.27
2018-09-20T04:29:44.707Z,4.40
2018-09-20T04:32:12.258Z,4.70
2018-09-20T04:34:39.878Z,4.33
2018-09-20T04:37:07.511Z,4.97
2018-09-20T04:39:35.603Z,4.43
2018-09-20T04:42:03.134Z,4.77
2018-09-20T04:44:30.646Z,6.17
2018-09-20T04:46:58.272Z,6.37
2018-09-20T04:49:25.907Z,5.80
2018-09-20T04:51:53.494Z,5.33
2018-09-20T04:54:21.094Z,4.77
2018-09-20T04:56:48.633Z,5.80
2018-09-20T04:59:16.154Z,4.83
2018-09-20T05:01:43.780Z,5.73
2018-09-20T05:04:11.321Z,6.03
2018-09-20T05:06:38.934Z,6.83
2018-09-20T05:09:09.823Z,5.93
2018-09-20T05:11:37.338Z,6.57
2018-09-20T05:14:05.674Z,6.60
2018-09-20T05:16:33.198Z,5.20
2018-09-20T05:19:00.774Z,6.37
2018-09-20T05:21:28.349Z,6.90
2018-09-20T05:23:56.891Z,5.93
2018-09-20T05:26:24.650Z,6.63
2018-09-20T05:28:52.306Z,5.10
2018-09-20T05:31:19.865Z,5.87
2018-09-20T05:33:47.519Z,4.90
2018-09-20T05:36:15.237Z,5.27
2018-09-20T05:38:42.798Z,4.67
2018-09-20T05:41:10.334Z,6.20
2018-09-20T05:43:37.966Z,5.57
2018-09-20T05:46:05.631Z,5.97
2018-09-20T05:48:33.245Z,4.87
2018-09-20T05:51:00.891Z,4.60
2018-09-20T05:53:28.513Z,7.53
2018-09-20T05:55:56.127Z,5.85
2018-09-20T05:58:23.736Z,5.12
2018-09-20T06:00:51.370Z,5.75
2018-09-20T06:03:18.984Z,6.40
2018-09-20T06:05:46.661Z,6.25
2018-09-20T06:08:14.246Z,4.65
2018-09-20T06:10:41.886Z,4.90
2018-09-20T06:13:09.523Z,6.03
2018-09-20T06:15:37.140Z,5.60
2018-09-20T06:18:04.879Z,6.45
2018-09-20T06:20:32.511Z,4.53
2018-09-20T06:23:00.183Z,4.90
2018-09-20T06:25:27.807Z,4.35
2018-09-20T06:27:55.466Z,5.72
2018-09-20T06:30:23.106Z,8.38
2018-09-20T06:32:50.769Z,9.43
2018-09-20T06:35:19.595Z,6.95
2018-09-20T06:37:47.372Z,5.20
2018-09-20T06:40:15.153Z,8.03
2018-09-20T06:42:42.763Z,4.72
2018-09-20T06:45:10.288Z,5.40
2018-09-20T06:47:37.978Z,6.25
2018-09-20T06:50:05.717Z,5.33
2018-09-20T06:52:33.330Z,4.75
2018-09-20T06:55:00.994Z,4.97
2018-09-20T06:57:33.147Z,6.03
2018-09-20T07:00:00.727Z,4.37
2018-09-20T07:02:28.351Z,8.20
2018-09-20T07:04:56.037Z,4.35
2018-09-20T07:07:23.632Z,4.45
2018-09-20T07:09:51.162Z,5.05
2018-09-20T07:12:18.964Z,4.15
2018-09-20T07:14:46.926Z,4.20
2018-09-20T07:17:14.695Z,3.77
2018-09-20T07:19:42.508Z,3.35
2018-09-20T07:22:10.234Z,3.70
2018-09-20T07:24:37.872Z,4.80
2018-09-20T07:27:05.578Z,3.55
2018-09-20T07:29:33.225Z,3.65
2018-09-20T07:32:00.862Z,3.42
2018-09-20T07:34:28.492Z,3.87
2018-09-20T07:36:56.124Z,3.00
2018-09-20T07:39:23.911Z,4.90
2018-09-20T07:41:51.550Z,3.58
2018-09-20T07:44:19.192Z,3.60
2018-09-20T07:46:46.856Z,3.22
2018-09-20T07:49:14.558Z,4.65
2018-09-20T07:51:42.198Z,3.62
2018-09-20T07:54:09.812Z,4.17
2018-09-20T07:56:37.463Z,3.77
2018-09-20T07:59:05.129Z,4.35
2018-09-20T08:01:32.830Z,8.73
2018-09-20T08:04:00.503Z,3.80
2018-09-20T08:06:28.168Z,4.62
2018-09-20T08:08:55.771Z,3.92
2018-09-20T08:11:23.359Z,6.42
2018-09-20T08:13:50.883Z,3.47
2018-09-20T08:16:18.518Z,3.60
2018-09-20T08:18:46.115Z,4.37
2018-09-20T08:21:13.783Z,4.20
2018-09-20T08:23:41.409Z,6.15
2018-09-20T08:26:09.143Z,3.83
2018-09-20T08:28:36.774Z,5.72
2018-09-20T08:31:04.426Z,4.90
2018-09-20T08:33:31.948Z,6.40
2018-09-20T08:35:59.582Z,5.87
2018-09-20T08:38:27.078Z,4.92
2018-09-20T08:40:54.589Z,3.90
2018-09-20T08:43:22.092Z,4.78
2018-09-20T08:45:49.602Z,3.75
2018-09-20T08:48:17.254Z,4.78
2018-09-20T08:53:34.746Z,4.53
2018-09-20T08:56:02.283Z,4.03
2018-09-20T08:58:32.728Z,4.35
2018-09-20T09:01:00.894Z,4.50
2018-09-20T09:03:28.590Z,4.60
2018-09-20T09:05:56.286Z,4.35
2018-09-20T09:08:24.119Z,4.08
2018-09-20T09:10:51.845Z,3.12
2018-09-20T09:13:19.492Z,4.40
2018-09-20T09:15:47.128Z,3.45
2018-09-20T09:18:14.710Z,3.20
2018-09-20T09:20:42.591Z,3.10
2018-09-20T09:23:10.223Z,3.12
2018-09-20T09:25:37.882Z,3.10
2018-09-20T09:28:05.746Z,5.28
2018-09-20T09:30:33.379Z,4.30
2018-09-20T09:33:01.001Z,3.65
2018-09-20T09:35:28.635Z,3.02
2018-09-20T09:37:56.278Z,3.40
2018-09-20T09:40:23.902Z,3.75
2018-09-20T09:42:51.563Z,3.40
2018-09-20T09:45:19.406Z,3.17
2018-09-20T09:47:47.108Z,3.92
2018-09-20T09:50:14.836Z,4.30
2018-09-20T09:52:42.971Z,3.62
2018-09-20T09:55:10.584Z,4.30
2018-09-20T09:57:38.254Z,3.40
2018-09-20T10:00:05.993Z,3.00
2018-09-20T10:02:33.659Z,3.33
2018-09-20T10:05:01.283Z,10.80
2018-09-20T10:07:28.925Z,2.67
2018-09-20T10:09:56.517Z,4.00
2018-09-20T10:12:24.247Z,3.05
2018-09-20T10:14:51.851Z,2.95
2018-09-20T10:17:19.467Z,2.92
2018-09-20T10:19:47.128Z,3.00
2018-09-20T10:22:14.735Z,3.33
2018-09-20T10:24:42.362Z,4.10
2018-09-20T10:27:09.999Z,2.72
2018-09-20T10:29:37.598Z,2.75
2018-09-20T10:32:05.233Z,3.47
2018-09-20T10:34:32.845Z,3.10
2018-09-20T10:37:00.464Z,3.27
2018-09-20T10:39:28.779Z,3.25
2018-09-20T10:41:56.422Z,4.42
2018-09-20T10:44:24.374Z,2.83
2018-09-20T10:46:52.033Z,2.85
2018-09-20T10:49:19.669Z,2.30
2018-09-20T10:51:47.555Z,3.12
2018-09-20T10:54:15.176Z,2.85
2018-09-20T10:56:42.790Z,3.37
2018-09-20T10:59:10.467Z,2.77
2018-09-20T11:01:38.101Z,3.45
2018-09-20T11:04:05.758Z,2.90
2018-09-20T11:06:33.565Z,3.00
2018-09-20T11:09:01.204Z,2.90
2018-09-20T11:11:28.841Z,2.55
2018-09-20T11:13:56.484Z,3.12
2018-09-20T11:16:24.110Z,2.37
2018-09-20T11:18:51.790Z,2.83
2018-09-20T11:21:19.459Z,2.83
2018-09-20T11:23:47.071Z,2.80
2018-09-20T11:26:14.879Z,3.00
2018-09-20T11:28:42.468Z,2.80
2018-09-20T11:31:11.539Z,3.02
2018-09-20T11:33:39.193Z,3.62
2018-09-20T11:36:06.905Z,2.77
2018-09-20T11:39:25.170Z,3.45
2018-09-20T11:41:52.834Z,3.72
2018-09-20T11:44:20.385Z,3.20
2018-09-20T11:46:47.987Z,2.62
2018-09-20T11:49:15.533Z,3.85
2018-09-20T11:51:43.057Z,2.87
2018-09-20T11:54:10.660Z,2.90
2018-09-20T11:56:38.288Z,3.55
2018-09-20T11:59:06.265Z,3.25
2018-09-20T12:01:33.950Z,2.87
2018-09-20T12:04:01.571Z,3.20
2018-09-20T12:06:29.203Z,2.85
2018-09-20T12:08:56.758Z,3.05
2018-09-20T12:11:24.692Z,4.37
2018-09-20T12:13:52.345Z,4.03
2018-09-20T12:16:20.091Z,2.92
2018-09-20T12:18:47.747Z,3.92
2018-09-20T12:21:15.326Z,4.00
2018-09-20T12:23:43.008Z,4.62
2018-09-20T12:26:10.550Z,4.30
2018-09-20T12:28:38.199Z,3.42
2018-09-20T12:31:05.891Z,3.22
2018-09-20T12:33:33.515Z,4.12
2018-09-20T12:36:01.349Z,3.50
2018-09-20T12:38:29.024Z,3.30
2018-09-20T12:40:56.878Z,2.92
2018-09-20T12:43:24.791Z,3.65
2018-09-20T12:45:52.547Z,2.70
2018-09-20T12:48:20.289Z,3.05
2018-09-20T12:50:47.770Z,4.03
2018-09-20T12:53:15.675Z,2.75
2018-09-20T12:55:43.275Z,2.67
2018-09-20T12:58:11.101Z,2.85
2018-09-20T13:00:38.886Z,3.92
2018-09-20T13:03:06.625Z,3.17
2018-09-20T13:05:34.712Z,11.18
2018-09-20T13:08:02.594Z,3.58
2018-09-20T13:10:30.387Z,2.62
2018-09-20T13:12:58.148Z,2.45
2018-09-20T13:15:25.838Z,2.72
2018-09-20T13:17:53.401Z,2.60
2018-09-20T13:20:21.125Z,3.17
2018-09-20T13:22:48.847Z,3.15
2018-09-20T13:25:16.485Z,2.35
2018-09-20T13:27:44.703Z,2.92
2018-09-20T13:30:12.436Z,2.80
2018-09-20T13:32:40.090Z,2.55
2018-09-20T13:35:07.770Z,2.50
2018-09-20T13:37:35.494Z,2.33
2018-09-20T13:40:03.061Z,3.67
2018-09-20T13:42:30.617Z,3.22
2018-09-20T13:44:58.283Z,2.52
2018-09-20T13:47:25.949Z,3.72
2018-09-20T13:49:53.517Z,15.85
2018-09-20T13:52:21.095Z,13.40
2018-09-20T13:54:48.767Z,13.40
2018-09-20T13:57:16.481Z,19.52
2018-09-20T13:59:44.060Z,16.90
2018-09-20T14:02:11.766Z,11.55
2018-09-20T14:04:39.428Z,5.53
2018-09-20T14:07:06.975Z,4.17
2018-09-20T14:09:34.648Z,3.62
2018-09-20T14:12:02.208Z,5.80
2018-09-20T14:14:29.766Z,2.98
2018-09-20T14:16:57.513Z,2.70
2018-09-20T14:19:25.258Z,2.70
2018-09-20T14:21:52.911Z,2.92
2018-09-20T14:24:20.455Z,3.05
2018-09-20T14:26:48.099Z,5.20
2018-09-20T14:29:15.720Z,7.70
2018-09-20T14:31:43.475Z,10.53
2018-09-20T14:34:10.998Z,3.17
2018-09-20T14:36:38.618Z,4.17
2018-09-20T14:39:08.050Z,3.35
2018-09-20T14:41:35.839Z,3.02
2018-09-20T14:44:03.441Z,4.10
2018-09-20T14:46:30.977Z,3.33
2018-09-20T14:48:58.534Z,3.70
2018-09-20T14:51:26.142Z,2.60
2018-09-20T14:53:53.683Z,3.00
2018-09-20T14:56:21.230Z,2.92
2018-09-20T14:58:48.923Z,2.50
2018-09-20T15:01:16.478Z,2.55
2018-09-20T15:03:44.129Z,5.10
2018-09-20T15:06:11.770Z,5.33
2018-09-20T15:08:39.323Z,2.70
2018-09-20T15:11:06.877Z,2.60
2018-09-20T15:13:34.523Z,2.67
2018-09-20T15:16:02.053Z,2.50
2018-09-20T15:18:29.597Z,2.50
2018-09-20T15:20:57.187Z,2.40
2018-09-20T15:23:24.718Z,2.20
2018-09-20T15:25:52.422Z,2.67
2018-09-20T15:28:20.063Z,2.95
2018-09-20T15:30:48.095Z,2.72
2018-09-20T15:33:15.778Z,2.45
2018-09-20T15:35:43.425Z,4.03
2018-09-20T15:38:10.970Z,2.27
2018-09-20T15:40:38.544Z,3.22
2018-09-20T15:43:06.303Z,2.50
2018-09-20T15:45:33.975Z,3.75
2018-09-20T15:48:01.539Z,2.58
2018-09-20T15:50:29.232Z,2.80
2018-09-20T15:52:56.854Z,2.75
2018-09-20T15:55:24.523Z,2.40
2018-09-20T15:57:52.188Z,5.28
2018-09-20T16:00:19.716Z,2.20
2018-09-20T16:02:47.334Z,2.40
2018-09-20T16:05:15.031Z,2.72
2018-09-20T16:07:42.625Z,3.08
2018-09-20T16:10:10.278Z,2.65
2018-09-20T16:12:37.847Z,2.40
2018-09-20T16:15:05.467Z,2.92
2018-09-20T16:17:33.154Z,3.20
2018-09-20T16:20:00.746Z,2.70
2018-09-20T16:22:28.422Z,2.80
2018-09-20T16:24:56.084Z,2.67
2018-09-20T16:27:23.697Z,2.37
2018-09-20T16:30:16.342Z,3.20
2018-09-20T16:32:59.439Z,3.80
2018-09-20T16:35:35.546Z,4.03
2018-09-20T16:38:17.358Z,2.27
2018-09-20T16:40:45.964Z,3.37
2018-09-20T16:43:13.619Z,2.70
2018-09-20T16:45:41.183Z,2.80
2018-09-20T16:48:08.702Z,2.98
2018-09-20T16:50:36.234Z,3.70
2018-09-20T16:53:04.006Z,3.65
2018-09-20T16:55:31.490Z,4.42
2018-09-20T16:57:59.012Z,3.62
2018-09-20T17:00:26.679Z,4.45
2018-09-20T17:02:54.202Z,3.52
2018-09-20T17:05:21.839Z,3.33
2018-09-20T17:07:49.362Z,3.22
2018-09-20T17:10:17.030Z,4.65
2018-09-20T17:12:44.585Z,4.40
2018-09-20T17:15:12.449Z,4.08
2018-09-20T17:17:39.834Z,3.45
2018-09-20T17:20:07.596Z,4.20
2018-09-20T17:22:35.066Z,2.92
2018-09-20T17:25:02.618Z,2.52
2018-09-20T17:27:30.179Z,3.55
2018-09-20T17:29:57.841Z,2.87
2018-09-20T17:32:25.530Z,2.80
2018-09-20T17:34:53.443Z,3.02
2018-09-20T17:37:21.754Z,3.73
2018-09-20T17:39:50.535Z,3.25
2018-09-20T17:42:19.054Z,3.37
2018-09-20T17:44:47.410Z,3.40
2018-09-20T17:47:15.038Z,2.65
2018-09-20T17:49:42.728Z,3.42
2018-09-20T17:52:10.442Z,3.02
2018-09-20T17:54:38.164Z,3.20
2018-09-20T17:57:06.097Z,5.35
2018-09-20T17:59:33.678Z,3.20
2018-09-20T18:02:01.271Z,4.25
2018-09-20T18:04:35.594Z,5.35
2018-09-20T18:07:03.270Z,3.90
2018-09-20T18:09:30.800Z,5.87
2018-09-20T18:11:58.507Z,3.67
2018-09-20T18:14:26.148Z,3.80
2018-09-20T18:16:53.833Z,4.45
2018-09-20T18:19:21.392Z,3.47
2018-09-20T18:21:50.258Z,3.10
2018-09-20T18:24:18.125Z,3.67
2018-09-20T18:26:46.036Z,5.17
2018-09-20T18:29:15.016Z,3.92
2018-09-20T18:31:43.429Z,3.42
2018-09-20T18:34:11.777Z,3.62
2018-09-20T18:36:41.398Z,3.73
2018-09-20T18:39:11.903Z,2.98
2018-09-20T18:41:41.133Z,4.00
2018-09-20T18:44:09.416Z,2.37
2018-09-20T18:46:37.507Z,4.03
2018-09-20T18:49:07.354Z,2.95
2018-09-20T18:51:35.111Z,2.45
2018-09-20T18:54:02.831Z,3.33
2018-09-20T18:56:30.543Z,2.67
2018-09-20T18:58:58.146Z,4.60
2018-09-20T19:01:25.758Z,3.20
2018-09-20T19:03:53.353Z,3.70
2018-09-20T19:09:07.774Z,3.33
2018-09-20T19:11:35.770Z,3.57
2018-09-20T19:14:03.925Z,4.97
2018-09-20T19:16:32.852Z,4.00
2018-09-20T19:19:01.299Z,4.17
2018-09-20T19:21:29.493Z,2.87
2018-09-20T19:23:57.917Z,3.20
2018-09-20T19:26:25.587Z,2.73
2018-09-20T19:28:53.339Z,2.80
2018-09-20T19:31:21.202Z,3.40
2018-09-20T19:33:49.199Z,3.20
2018-09-20T19:36:17.391Z,2.60
2018-09-20T19:38:45.551Z,4.03
2018-09-20T19:41:13.793Z,3.10
2018-09-20T19:43:42.008Z,4.13
2018-09-20T19:46:09.859Z,2.67
2018-09-20T19:48:38.230Z,3.77
2018-09-20T19:51:06.082Z,2.47
2018-09-20T19:53:34.769Z,4.17
2018-09-20T19:56:03.024Z,2.80
2018-09-20T19:58:30.727Z,3.10
2018-09-20T20:00:58.344Z,3.43
2018-09-20T20:03:26.036Z,3.80
2018-09-20T20:05:53.838Z,4.63
2018-09-20T20:08:22.641Z,3.90
2018-09-20T20:10:50.840Z,3.03
2018-09-20T20:13:18.702Z,3.10
2018-09-20T20:15:47.799Z,3.27
2018-09-20T20:18:15.640Z,2.60
2018-09-20T20:20:43.986Z,3.70
2018-09-20T20:23:11.690Z,2.30
2018-09-20T20:25:41.019Z,2.50
2018-09-20T20:28:09.115Z,3.70
2018-09-20T20:30:36.922Z,2.77
2018-09-20T20:33:04.720Z,2.57
2018-09-20T20:35:32.347Z,3.03
2018-09-20T20:37:59.963Z,3.90
2018-09-20T20:40:27.723Z,3.17
2018-09-20T20:42:56.014Z,2.60
2018-09-20T20:45:25.544Z,3.33
2018-09-20T20:47:53.256Z,3.03
2018-09-20T20:50:21.815Z,2.97
2018-09-20T20:52:49.981Z,2.90
2018-09-20T20:55:18.720Z,3.33
2018-09-20T20:57:47.289Z,2.73
2018-09-20T21:00:15.960Z,3.77
2018-09-20T21:02:44.114Z,2.80
2018-09-20T21:05:12.638Z,3.60
2018-09-20T21:07:40.366Z,5.03
2018-09-20T21:10:08.767Z,3.70
2018-09-20T21:12:36.598Z,2.80
2018-09-20T21:15:05.156Z,3.27
2018-09-20T21:17:33.321Z,3.10
2018-09-20T21:20:01.437Z,3.17
2018-09-20T21:22:31.157Z,2.33
2018-09-20T21:24:59.377Z,2.77
2018-09-20T21:27:27.166Z,2.83
2018-09-20T21:29:55.118Z,2.77
2018-09-20T21:32:22.731Z,3.10
2018-09-20T21:34:50.836Z,4.60
2018-09-20T21:37:18.490Z,2.33
2018-09-20T21:39:46.149Z,4.73
2018-09-20T21:42:13.783Z,3.10
2018-09-20T21:44:41.392Z,3.30
2018-09-20T21:47:09.054Z,3.37
2018-09-20T21:49:37.185Z,3.37
2018-09-20T21:52:04.848Z,2.73
2018-09-20T21:54:32.467Z,2.83
2018-09-20T21:57:00.166Z,2.60
2018-09-20T21:59:27.886Z,3.87
2018-09-20T22:02:00.863Z,2.60
2018-09-20T22:04:28.606Z,4.10
2018-09-20T22:06:56.395Z,3.00
2018-09-20T22:09:24.139Z,3.27
2018-09-20T22:11:51.835Z,2.87
2018-09-20T22:14:19.475Z,3.73
2018-09-20T22:16:47.496Z,2.80
2018-09-20T22:19:15.247Z,2.77
2018-09-20T22:21:42.907Z,3.83
2018-09-20T22:24:10.546Z,3.07
2018-09-20T22:26:38.091Z,3.20
2018-09-20T22:29:05.819Z,2.80
2018-09-20T22:31:33.431Z,2.70
2018-09-20T22:34:02.073Z,4.53
2018-09-20T22:36:29.715Z,3.13
2018-09-20T22:38:57.440Z,3.80
2018-09-20T22:41:25.126Z,3.07
2018-09-20T22:43:52.979Z,3.17
2018-09-20T22:46:20.822Z,2.93
2018-09-20T22:48:48.470Z,3.40
2018-09-20T22:51:16.149Z,2.90
2018-09-20T22:53:43.753Z,3.93
2018-09-20T22:56:11.359Z,3.43
2018-09-20T22:58:39.003Z,2.80
2018-09-20T23:01:06.542Z,3.70
2018-09-20T23:03:34.172Z,4.03
2018-09-20T23:06:01.796Z,3.33
2018-09-20T23:08:29.413Z,3.20
2018-09-20T23:10:57.047Z,3.10
2018-09-20T23:13:24.559Z,3.03
2018-09-20T23:15:52.305Z,2.60
2018-09-20T23:18:20.062Z,2.53
2018-09-20T23:20:47.767Z,3.30
2018-09-20T23:23:15.376Z,5.67
2018-09-20T23:25:43.118Z,2.90
2018-09-20T23:28:10.738Z,9.07
2018-09-20T23:30:38.481Z,2.93
2018-09-20T23:33:06.110Z,3.57
2018-09-20T23:35:33.742Z,2.80
2018-09-20T23:38:01.376Z,3.43
2018-09-20T23:40:28.926Z,2.97
2018-09-20T23:42:56.550Z,3.20
2018-09-20T23:45:24.196Z,4.00
2018-09-20T23:47:51.916Z,5.00
2018-09-20T23:50:19.606Z,5.70
2018-09-20T23:52:47.154Z,4.67
2018-09-20T23:55:14.854Z,3.67
2018-09-20T23:57:42.506Z,4.23
